createdAt,value
2018-06-20T00:01:09.210Z,15.69
2018-06-20T00:03:38.644Z,15.72
2018-06-20T00:06:07.973Z,15.68
2018-06-20T00:08:42.452Z,15.73
2018-06-20T00:11:11.775Z,15.66
2018-06-20T00:13:41.138Z,15.56
2018-06-20T00:16:10.528Z,15.53
2018-06-20T00:18:39.877Z,15.44
2018-06-20T00:21:09.299Z,15.34
2018-06-20T00:23:38.624Z,15.43
2018-06-20T00:26:07.956Z,15.49
2018-06-20T00:28:37.348Z,15.42
2018-06-20T00:31:06.880Z,15.46
2018-06-20T00:33:36.300Z,15.43
2018-06-20T00:36:05.696Z,15.40
2018-06-20T00:38:35.185Z,15.43
2018-06-20T00:41:04.504Z,15.35
2018-06-20T00:43:33.902Z,15.35
2018-06-20T00:46:03.365Z,15.28
2018-06-20T00:48:32.670Z,15.27
2018-06-20T00:51:01.996Z,15.21
2018-06-20T00:53:31.473Z,15.18
2018-06-20T00:56:17.906Z,15.09
2018-06-20T00:58:47.236Z,15.08
2018-06-20T01:01:16.588Z,15.00
2018-06-20T01:03:46.163Z,15.05
2018-06-20T01:06:15.588Z,15.06
2018-06-20T01:08:44.906Z,15.02
2018-06-20T01:11:14.220Z,15.01
2018-06-20T01:13:43.570Z,14.95
2018-06-20T01:16:12.916Z,14.96
2018-06-20T01:18:42.248Z,14.93
2018-06-20T01:21:11.591Z,14.89
2018-06-20T01:23:40.941Z,14.84
2018-06-20T01:26:10.248Z,14.73
2018-06-20T01:28:39.609Z,14.67
2018-06-20T01:31:08.956Z,14.57
2018-06-20T01:33:38.359Z,14.57
2018-06-20T01:36:07.700Z,14.66
2018-06-20T01:38:37.052Z,14.67
2018-06-20T01:41:06.601Z,14.73
2018-06-20T01:43:35.960Z,14.76
2018-06-20T01:46:05.299Z,14.73
2018-06-20T01:48:34.660Z,14.73
2018-06-20T01:51:03.980Z,14.75
2018-06-20T01:53:33.478Z,14.70
2018-06-20T01:56:02.921Z,14.81
2018-06-20T01:58:32.245Z,14.84
2018-06-20T02:01:01.582Z,14.82
2018-06-20T02:03:30.880Z,14.88
2018-06-20T02:06:00.225Z,15.01
2018-06-20T02:08:29.556Z,14.97
2018-06-20T02:10:58.913Z,14.99
2018-06-20T02:13:28.264Z,14.96
2018-06-20T02:15:57.597Z,14.88
2018-06-20T02:18:26.963Z,14.87
2018-06-20T02:20:56.260Z,14.82
2018-06-20T02:23:25.579Z,14.88
2018-06-20T02:25:54.934Z,14.85
2018-06-20T02:28:24.235Z,14.80
2018-06-20T02:30:53.608Z,14.73
2018-06-20T02:33:22.952Z,14.72
2018-06-20T02:35:52.276Z,14.63
2018-06-20T02:38:21.617Z,14.74
2018-06-20T02:40:50.978Z,14.73
2018-06-20T02:43:20.411Z,14.72
2018-06-20T02:45:49.818Z,14.77
2018-06-20T02:48:18.900Z,14.85
2018-06-20T02:50:48.205Z,14.76
2018-06-20T02:53:17.609Z,14.80
2018-06-20T02:55:46.950Z,14.92
2018-06-20T02:58:16.313Z,14.88
2018-06-20T03:00:45.398Z,14.85
2018-06-20T03:03:14.708Z,14.94
2018-06-20T03:05:44.057Z,14.87
2018-06-20T03:08:13.384Z,14.88
2018-06-20T03:10:42.753Z,14.79
2018-06-20T03:13:12.158Z,14.77
2018-06-20T03:15:41.488Z,14.89
2018-06-20T03:18:10.872Z,14.89
2018-06-20T03:20:40.195Z,14.92
2018-06-20T03:23:09.521Z,14.85
2018-06-20T03:25:38.920Z,14.86
2018-06-20T03:28:08.257Z,14.90
2018-06-20T03:30:37.613Z,14.92
2018-06-20T03:33:06.940Z,14.91
2018-06-20T03:35:36.277Z,14.92
2018-06-20T03:38:05.628Z,15.01
2018-06-20T03:40:35.230Z,15.06
2018-06-20T03:43:04.602Z,14.96
2018-06-20T03:45:33.928Z,14.97
2018-06-20T03:48:03.296Z,15.00
2018-06-20T03:50:32.627Z,14.92
2018-06-20T03:53:01.940Z,14.98
2018-06-20T03:55:31.277Z,15.08
2018-06-20T03:58:00.688Z,15.17
2018-06-20T04:00:29.988Z,15.13
2018-06-20T04:02:59.297Z,15.22
2018-06-20T04:05:30.329Z,15.29
2018-06-20T04:08:00.159Z,15.34
2018-06-20T04:10:29.509Z,15.31
2018-06-20T04:12:58.821Z,15.25
2018-06-20T04:15:28.180Z,14.97
2018-06-20T04:17:57.505Z,14.98
2018-06-20T04:20:26.951Z,15.11
2018-06-20T04:22:56.287Z,15.12
2018-06-20T04:25:25.608Z,15.21
2018-06-20T04:27:55.002Z,15.29
2018-06-20T04:30:24.344Z,15.17
2018-06-20T04:32:53.847Z,15.22
2018-06-20T04:35:23.172Z,15.30
2018-06-20T04:37:52.565Z,15.36
2018-06-20T04:40:21.872Z,15.49
2018-06-20T04:42:51.186Z,15.38
2018-06-20T04:45:20.543Z,15.48
2018-06-20T04:47:49.851Z,15.41
2018-06-20T04:50:19.252Z,15.42
2018-06-20T04:52:48.674Z,15.43
2018-06-20T04:55:17.976Z,15.42
2018-06-20T04:57:47.292Z,15.45
2018-06-20T05:00:16.612Z,15.67
2018-06-20T05:02:45.918Z,15.75
2018-06-20T05:05:15.256Z,16.03
2018-06-20T05:07:44.588Z,16.29
2018-06-20T05:10:13.888Z,16.43
2018-06-20T05:12:43.204Z,16.65
2018-06-20T05:15:12.599Z,16.78
2018-06-20T05:17:41.900Z,16.85
2018-06-20T05:20:11.262Z,17.03
2018-06-20T05:22:40.681Z,17.05
2018-06-20T05:25:09.922Z,17.20
2018-06-20T05:27:39.239Z,17.19
2018-06-20T05:30:08.572Z,17.34
2018-06-20T05:32:37.999Z,17.52
2018-06-20T05:35:07.297Z,17.43
2018-06-20T05:37:36.632Z,17.30
2018-06-20T05:40:06.397Z,17.35
2018-06-20T05:42:35.725Z,17.30
2018-06-20T05:45:05.407Z,17.24
2018-06-20T05:47:34.820Z,16.57
2018-06-20T05:50:04.185Z,16.63
2018-06-20T05:52:33.521Z,16.70
2018-06-20T05:55:02.891Z,16.23
2018-06-20T05:57:32.325Z,16.42
2018-06-20T06:00:01.654Z,16.66
2018-06-20T06:02:31.008Z,16.77
2018-06-20T06:05:00.367Z,16.97
2018-06-20T06:07:29.703Z,17.28
2018-06-20T06:09:59.050Z,17.40
2018-06-20T06:12:28.385Z,17.68
2018-06-20T06:14:57.715Z,18.01
2018-06-20T06:17:27.085Z,18.37
2018-06-20T06:19:56.444Z,18.63
2018-06-20T06:22:25.736Z,18.85
2018-06-20T06:24:55.069Z,18.79
2018-06-20T06:27:24.416Z,18.90
2018-06-20T06:29:53.727Z,19.25
2018-06-20T06:32:23.040Z,19.17
2018-06-20T06:34:52.368Z,19.47
2018-06-20T06:37:21.676Z,19.70
2018-06-20T06:39:51.054Z,19.84
2018-06-20T06:42:20.381Z,19.82
2018-06-20T06:44:49.708Z,20.03
2018-06-20T06:47:19.018Z,19.91
2018-06-20T06:49:48.376Z,20.03
2018-06-20T06:52:17.664Z,20.21
2018-06-20T06:54:46.992Z,20.44
2018-06-20T06:57:16.419Z,20.28
2018-06-20T06:59:45.733Z,20.32
2018-06-20T07:02:15.072Z,20.14
2018-06-20T07:04:44.463Z,19.97
2018-06-20T07:07:13.764Z,20.24
2018-06-20T07:09:43.091Z,20.09
2018-06-20T07:12:12.428Z,20.10
2018-06-20T07:14:41.757Z,20.33
2018-06-20T07:17:11.093Z,20.69
2018-06-20T07:19:40.442Z,20.37
2018-06-20T07:22:09.775Z,20.48
2018-06-20T07:24:39.363Z,20.85
2018-06-20T07:27:08.449Z,20.77
2018-06-20T07:29:37.820Z,20.92
2018-06-20T07:32:07.264Z,21.33
2018-06-20T07:34:36.577Z,21.46
2018-06-20T07:37:05.961Z,21.81
2018-06-20T07:39:35.573Z,21.95
2018-06-20T07:42:04.920Z,22.12
2018-06-20T07:44:34.461Z,22.46
2018-06-20T07:47:03.531Z,22.73
2018-06-20T07:49:32.827Z,23.06
2018-06-20T07:52:02.168Z,23.24
2018-06-20T07:54:31.584Z,23.32
2018-06-20T07:57:00.901Z,23.55
2018-06-20T07:59:35.543Z,23.76
2018-06-20T08:02:27.271Z,23.91
2018-06-20T08:05:01.945Z,24.14
2018-06-20T08:07:36.579Z,24.24
2018-06-20T08:10:11.036Z,24.19
2018-06-20T08:12:45.477Z,24.42
2018-06-20T08:15:18.873Z,24.19
2018-06-20T08:17:53.420Z,24.18
2018-06-20T08:20:25.125Z,24.10
2018-06-20T08:22:54.428Z,24.64
2018-06-20T08:25:23.774Z,24.74
2018-06-20T08:27:53.101Z,24.96
2018-06-20T08:30:22.192Z,25.17
2018-06-20T08:32:51.568Z,25.43
2018-06-20T08:35:20.884Z,25.34
2018-06-20T08:37:50.213Z,25.65
2018-06-20T08:40:19.544Z,25.38
2018-06-20T08:42:48.875Z,24.99
2018-06-20T08:45:18.200Z,25.40
2018-06-20T08:47:47.592Z,25.48
2018-06-20T08:50:16.908Z,25.73
2018-06-20T08:52:46.232Z,25.73
2018-06-20T08:55:15.568Z,25.22
2018-06-20T08:57:44.893Z,25.67
2018-06-20T09:00:14.324Z,25.89
2018-06-20T09:02:43.665Z,25.86
2018-06-20T09:05:18.157Z,25.86
2018-06-20T09:07:52.744Z,25.80
2018-06-20T09:10:27.199Z,25.79
2018-06-20T09:13:01.901Z,25.17
2018-06-20T09:15:36.485Z,25.59
2018-06-20T09:18:11.183Z,25.81
2018-06-20T09:20:40.519Z,25.42
2018-06-20T09:23:09.871Z,25.30
2018-06-20T09:25:39.196Z,24.94
2018-06-20T09:28:08.610Z,24.90
2018-06-20T09:30:38.081Z,25.40
2018-06-20T09:33:07.451Z,25.63
2018-06-20T09:35:36.836Z,25.53
2018-06-20T09:38:06.137Z,25.38
2018-06-20T09:40:35.490Z,25.51
2018-06-20T09:43:04.810Z,26.07
2018-06-20T09:45:34.148Z,26.16
2018-06-20T09:48:03.497Z,26.25
2018-06-20T09:50:38.121Z,26.62
2018-06-20T09:53:07.440Z,26.60
2018-06-20T09:55:36.758Z,25.95
2018-06-20T09:58:06.068Z,26.02
2018-06-20T10:00:40.796Z,25.34
2018-06-20T10:04:15.205Z,25.03
2018-06-20T10:06:49.790Z,25.49
2018-06-20T10:09:24.424Z,26.08
2018-06-20T10:11:58.980Z,26.40
2018-06-20T10:14:28.303Z,26.92
2018-06-20T10:16:57.615Z,27.08
2018-06-20T10:19:26.948Z,27.03
2018-06-20T10:21:56.665Z,26.48
2018-06-20T10:24:25.991Z,25.94
2018-06-20T10:26:55.347Z,26.61
2018-06-20T10:29:24.657Z,26.79
2018-06-20T10:31:54.060Z,27.10
2018-06-20T10:34:23.375Z,27.13
2018-06-20T10:36:52.805Z,26.41
2018-06-20T10:39:22.144Z,26.57
2018-06-20T10:41:51.585Z,26.97
2018-06-20T10:44:20.938Z,27.06
2018-06-20T10:47:53.425Z,27.11
2018-06-20T10:50:22.477Z,26.70
2018-06-20T10:52:51.803Z,27.15
2018-06-20T10:55:21.158Z,27.14
2018-06-20T10:57:55.736Z,27.52
2018-06-20T11:00:30.393Z,27.86
2018-06-20T11:03:04.888Z,28.18
2018-06-20T11:05:39.337Z,28.00
2018-06-20T11:09:14.619Z,27.81
2018-06-20T11:11:49.081Z,27.78
2018-06-20T11:14:18.434Z,28.17
2018-06-20T11:16:47.770Z,28.33
2018-06-20T11:19:17.116Z,28.37
2018-06-20T11:21:46.439Z,28.12
2018-06-20T11:24:15.760Z,28.22
2018-06-20T11:26:45.079Z,28.42
2018-06-20T11:29:14.676Z,28.70
2018-06-20T11:31:43.997Z,28.70
2018-06-20T11:34:13.452Z,28.77
2018-06-20T11:36:42.820Z,28.63
2018-06-20T11:39:13.284Z,28.20
2018-06-20T11:41:42.864Z,28.44
2018-06-20T11:44:12.211Z,28.87
2018-06-20T11:46:47.056Z,28.84
2018-06-20T11:49:16.417Z,28.93
2018-06-20T11:51:45.723Z,28.84
2018-06-20T11:54:15.046Z,28.88
2018-06-20T11:56:44.373Z,29.25
2018-06-20T11:59:18.930Z,29.32
2018-06-20T12:01:53.777Z,29.17
2018-06-20T12:04:28.256Z,28.88
2018-06-20T12:07:02.713Z,28.65
2018-06-20T12:09:37.183Z,28.85
2018-06-20T12:12:11.768Z,29.24
2018-06-20T12:14:46.388Z,28.94
2018-06-20T12:17:20.914Z,28.97
2018-06-20T12:19:55.529Z,29.62
2018-06-20T12:22:30.228Z,29.81
2018-06-20T12:25:04.852Z,30.02
2018-06-20T12:27:39.261Z,29.06
2018-06-20T12:30:13.774Z,29.15
2018-06-20T12:32:48.272Z,28.89
2018-06-20T12:35:22.980Z,29.39
2018-06-20T12:37:57.643Z,29.54
2018-06-20T12:40:32.319Z,29.60
2018-06-20T12:44:09.874Z,29.98
2018-06-20T12:47:45.218Z,30.25
2018-06-20T12:50:19.847Z,30.18
2018-06-20T12:52:49.927Z,29.80
2018-06-20T12:55:19.412Z,29.92
2018-06-20T12:57:48.732Z,29.62
2018-06-20T13:00:18.070Z,30.08
2018-06-20T13:02:47.468Z,30.21
2018-06-20T13:05:17.248Z,30.69
2018-06-20T13:07:46.609Z,31.08
2018-06-20T13:10:15.924Z,31.58
2018-06-20T13:12:45.285Z,32.06
2018-06-20T13:15:14.636Z,31.97
2018-06-20T13:17:43.945Z,31.83
2018-06-20T13:20:13.333Z,31.60
2018-06-20T13:22:42.625Z,32.00
2018-06-20T13:25:11.967Z,32.25
2018-06-20T13:27:46.589Z,32.27
2018-06-20T13:30:16.652Z,32.71
2018-06-20T13:32:51.192Z,32.86
2018-06-20T13:35:25.728Z,33.16
2018-06-20T13:38:00.459Z,33.60
2018-06-20T13:40:35.040Z,34.05
2018-06-20T13:43:09.618Z,33.92
2018-06-20T13:45:44.171Z,33.54
2018-06-20T13:48:18.703Z,33.51
2018-06-20T13:50:48.032Z,34.09
2018-06-20T13:53:17.361Z,33.99
2018-06-20T13:55:46.703Z,33.87
2018-06-20T13:58:16.586Z,34.08
2018-06-20T14:00:45.913Z,34.43
2018-06-20T14:03:15.256Z,34.75
2018-06-20T14:05:44.588Z,34.53
2018-06-20T14:08:13.905Z,35.05
2018-06-20T14:10:43.218Z,36.13
2018-06-20T14:13:12.552Z,37.87
2018-06-20T14:15:41.872Z,39.46
2018-06-20T14:18:11.229Z,39.13
2018-06-20T14:20:45.725Z,38.96
2018-06-20T14:23:15.183Z,40.28
2018-06-20T14:25:44.504Z,41.00
2018-06-20T14:28:13.840Z,39.21
2018-06-20T14:30:48.411Z,36.94
2018-06-20T14:33:23.021Z,37.84
2018-06-20T14:35:57.660Z,36.74
2018-06-20T14:38:32.106Z,36.57
2018-06-20T14:41:06.781Z,35.56
2018-06-20T14:43:41.169Z,34.58
2018-06-20T14:46:16.425Z,33.72
2018-06-20T14:48:46.425Z,33.82
2018-06-20T14:51:16.234Z,34.34
2018-06-20T14:53:46.450Z,35.35
2018-06-20T14:56:16.632Z,34.85
2018-06-20T14:58:46.298Z,37.12
2018-06-20T15:01:16.076Z,37.83
2018-06-20T15:03:45.688Z,38.22
2018-06-20T15:06:15.288Z,37.62
2018-06-20T15:08:44.644Z,36.58
2018-06-20T15:11:14.020Z,35.12
2018-06-20T15:13:43.506Z,35.91
2018-06-20T15:16:18.111Z,37.56
2018-06-20T15:18:47.641Z,37.90
2018-06-20T15:21:16.944Z,38.36
2018-06-20T15:23:46.385Z,39.46
2018-06-20T15:26:20.920Z,40.91
2018-06-20T15:28:55.548Z,41.79
2018-06-20T15:31:30.084Z,41.57
2018-06-20T15:34:04.753Z,41.07
2018-06-20T15:36:39.320Z,39.24
2018-06-20T15:39:09.394Z,39.56
2018-06-20T15:41:38.741Z,39.04
2018-06-20T15:44:08.072Z,38.68
2018-06-20T15:46:37.407Z,39.07
2018-06-20T15:49:06.756Z,38.79
2018-06-20T15:51:36.067Z,37.98
2018-06-20T15:54:05.556Z,38.81
2018-06-20T15:56:34.881Z,39.15
2018-06-20T15:59:04.392Z,40.01
2018-06-20T16:01:33.792Z,38.67
2018-06-20T16:04:03.174Z,39.04
2018-06-20T16:06:32.717Z,40.25
2018-06-20T16:09:07.434Z,41.20
2018-06-20T16:11:36.973Z,41.79
2018-06-20T16:14:06.699Z,40.99
2018-06-20T16:16:36.103Z,40.24
2018-06-20T16:19:10.876Z,40.27
2018-06-20T16:21:45.532Z,40.00
2018-06-20T16:24:20.368Z,39.48
2018-06-20T16:26:55.077Z,39.18
2018-06-20T16:29:29.931Z,38.76
2018-06-20T16:31:59.699Z,39.35
2018-06-20T16:34:29.322Z,39.03
2018-06-20T16:36:58.909Z,38.24
2018-06-20T16:39:28.527Z,38.94
2018-06-20T16:41:58.182Z,38.75
2018-06-20T16:44:27.800Z,39.26
2018-06-20T16:46:57.488Z,39.39
2018-06-20T16:49:27.099Z,39.77
2018-06-20T16:51:56.863Z,39.77
2018-06-20T16:54:26.461Z,39.64
2018-06-20T16:56:56.130Z,40.44
2018-06-20T16:59:25.830Z,40.43
2018-06-20T17:02:00.588Z,40.27
2018-06-20T17:04:30.474Z,39.84
2018-06-20T17:07:00.100Z,39.44
2018-06-20T17:09:29.742Z,38.98
2018-06-20T17:12:04.539Z,39.91
2018-06-20T17:14:39.324Z,40.73
2018-06-20T17:17:13.748Z,40.25
2018-06-20T17:19:48.137Z,39.94
2018-06-20T17:22:22.617Z,39.31
2018-06-20T17:24:57.181Z,38.58
2018-06-20T17:27:26.456Z,38.05
2018-06-20T17:29:55.789Z,37.41
2018-06-20T17:32:25.207Z,37.21
2018-06-20T17:34:54.625Z,36.90
2018-06-20T17:37:23.970Z,36.76
2018-06-20T17:39:53.308Z,36.97
2018-06-20T17:42:22.644Z,37.77
2018-06-20T17:44:51.996Z,38.21
2018-06-20T17:47:21.343Z,37.63
2018-06-20T17:49:50.660Z,38.36
2018-06-20T17:52:20.125Z,38.19
2018-06-20T17:54:49.479Z,37.77
2018-06-20T17:57:18.900Z,37.34
2018-06-20T17:59:48.237Z,35.81
2018-06-20T18:02:17.592Z,34.42
2018-06-20T18:04:51.998Z,33.28
2018-06-20T18:07:26.788Z,32.29
2018-06-20T18:10:01.385Z,31.18
2018-06-20T18:12:36.031Z,30.55
2018-06-20T18:15:11.552Z,29.96
2018-06-20T18:17:41.597Z,29.54
2018-06-20T18:20:10.941Z,29.08
2018-06-20T18:22:40.261Z,29.01
2018-06-20T18:25:09.599Z,28.82
2018-06-20T18:27:38.944Z,28.74
2018-06-20T18:30:08.271Z,28.79
2018-06-20T18:32:37.698Z,28.56
2018-06-20T18:35:07.234Z,28.15
2018-06-20T18:37:36.564Z,27.63
2018-06-20T18:40:08.297Z,27.43
2018-06-20T18:42:37.891Z,27.20
2018-06-20T18:45:07.258Z,27.11
2018-06-20T18:47:41.900Z,27.12
2018-06-20T18:50:11.240Z,26.90
2018-06-20T18:52:40.613Z,26.65
2018-06-20T18:55:10.028Z,26.33
2018-06-20T18:57:44.571Z,26.37
2018-06-20T19:00:19.076Z,26.39
2018-06-20T19:02:53.894Z,26.43
2018-06-20T19:05:29.138Z,26.33
2018-06-20T19:08:04.859Z,26.19
2018-06-20T19:10:34.247Z,26.30
2018-06-20T19:13:03.720Z,26.23
2018-06-20T19:15:33.686Z,26.08
2018-06-20T19:18:03.901Z,25.75
2018-06-20T19:20:33.844Z,25.68
2018-06-20T19:23:03.373Z,25.47
2018-06-20T19:25:32.726Z,25.39
2018-06-20T19:28:02.391Z,25.29
2018-06-20T19:30:31.771Z,25.16
2018-06-20T19:33:02.337Z,24.96
2018-06-20T19:35:31.875Z,24.72
2018-06-20T19:38:01.432Z,24.67
2018-06-20T19:40:31.582Z,24.38
2018-06-20T19:43:01.008Z,24.30
2018-06-20T19:45:30.128Z,24.18
2018-06-20T19:47:59.509Z,24.15
2018-06-20T19:50:28.863Z,23.99
2018-06-20T19:52:58.321Z,23.86
2018-06-20T19:55:27.413Z,23.76
2018-06-20T19:57:56.776Z,23.71
2018-06-20T20:00:26.542Z,23.57
2018-06-20T20:02:56.654Z,23.44
2018-06-20T20:05:26.058Z,23.25
2018-06-20T20:07:55.402Z,23.10
2018-06-20T20:10:24.841Z,22.82
2018-06-20T20:12:54.223Z,22.61
2018-06-20T20:15:23.593Z,22.48
2018-06-20T20:17:52.966Z,22.33
2018-06-20T20:20:22.374Z,22.10
2018-06-20T20:22:51.913Z,22.09
2018-06-20T20:25:21.285Z,21.94
2018-06-20T20:27:50.644Z,22.04
2018-06-20T20:30:20.020Z,22.04
2018-06-20T20:32:49.365Z,22.00
2018-06-20T20:35:18.773Z,21.86
2018-06-20T20:37:48.126Z,21.71
2018-06-20T20:40:17.438Z,21.65
2018-06-20T20:42:46.843Z,21.60
2018-06-20T20:45:16.164Z,21.50
2018-06-20T20:47:45.573Z,21.31
2018-06-20T20:50:15.124Z,21.28
2018-06-20T20:52:44.446Z,21.10
2018-06-20T20:55:13.875Z,21.10
2018-06-20T20:57:43.200Z,20.98
2018-06-20T21:00:12.549Z,20.88
2018-06-20T21:02:41.880Z,20.81
2018-06-20T21:05:11.261Z,20.83
2018-06-20T21:07:40.637Z,20.73
2018-06-20T21:10:09.991Z,20.79
2018-06-20T21:12:39.328Z,20.67
2018-06-20T21:15:08.669Z,20.64
2018-06-20T21:17:38.044Z,20.63
2018-06-20T21:20:07.413Z,20.60
2018-06-20T21:22:36.741Z,20.38
2018-06-20T21:25:06.060Z,20.20
2018-06-20T21:27:35.587Z,20.17
2018-06-20T21:30:04.952Z,20.11
2018-06-20T21:32:34.266Z,20.06
2018-06-20T21:35:03.603Z,20.05
2018-06-20T21:37:33.793Z,20.01
2018-06-20T21:40:04.836Z,19.94
2018-06-20T21:42:34.179Z,19.97
2018-06-20T21:45:03.520Z,19.84
2018-06-20T21:47:32.853Z,19.85
2018-06-20T21:50:02.207Z,19.78
2018-06-20T21:52:31.585Z,19.82
2018-06-20T21:55:00.951Z,19.74
2018-06-20T21:57:30.348Z,19.59
2018-06-20T21:59:59.680Z,19.35
2018-06-20T22:02:29.023Z,19.44
2018-06-20T22:04:58.465Z,19.37
2018-06-20T22:07:27.797Z,19.31
2018-06-20T22:09:57.113Z,19.34
2018-06-20T22:12:26.444Z,19.31
2018-06-20T22:14:55.780Z,19.32
2018-06-20T22:17:25.077Z,19.30
2018-06-20T22:19:55.246Z,19.29
2018-06-20T22:22:24.619Z,19.22
2018-06-20T22:24:53.979Z,19.19
2018-06-20T22:27:23.412Z,19.22
2018-06-20T22:29:52.769Z,19.09
2018-06-20T22:32:22.127Z,19.04
2018-06-20T22:34:51.189Z,19.11
2018-06-20T22:37:20.496Z,18.97
2018-06-20T22:39:49.871Z,18.81
2018-06-20T22:42:19.224Z,18.71
2018-06-20T22:44:48.659Z,18.79
2018-06-20T22:47:17.962Z,18.82
2018-06-20T22:49:47.340Z,18.81
2018-06-20T22:52:16.698Z,18.79
2018-06-20T22:54:46.041Z,18.73
2018-06-20T22:57:15.366Z,18.72
2018-06-20T22:59:44.703Z,18.76
2018-06-20T23:02:14.028Z,18.81
2018-06-20T23:04:43.348Z,18.89
2018-06-20T23:07:12.672Z,18.84
2018-06-20T23:09:42.067Z,18.80
2018-06-20T23:12:11.333Z,18.86
2018-06-20T23:14:40.706Z,18.87
2018-06-20T23:17:10.045Z,18.85
2018-06-20T23:19:39.379Z,18.92
2018-06-20T23:22:08.737Z,18.90
2018-06-20T23:24:38.036Z,18.94
2018-06-20T23:27:07.459Z,19.03
2018-06-20T23:29:36.789Z,19.00
2018-06-20T23:32:06.197Z,19.03
2018-06-20T23:34:35.519Z,18.94
2018-06-20T23:37:04.853Z,18.88
2018-06-20T23:39:34.181Z,18.83
2018-06-20T23:42:03.509Z,18.73
2018-06-20T23:44:32.844Z,18.71
2018-06-20T23:47:02.152Z,18.57
2018-06-20T23:49:31.548Z,18.52
2018-06-20T23:52:01.168Z,18.50
2018-06-20T23:54:30.499Z,18.58
2018-06-20T23:56:59.820Z,18.53
2018-06-20T23:59:29.148Z,18.61
